createdAt,value
2019-03-23T00:00:01.090Z,0
2019-03-23T00:01:02.899Z,0
2019-03-23T00:02:04.815Z,0
2019-03-23T00:03:06.787Z,0
2019-03-23T00:04:08.811Z,0
2019-03-23T00:05:10.790Z,0
2019-03-23T00:06:12.533Z,0
2019-03-23T00:07:14.637Z,0
2019-03-23T00:08:16.488Z,0
2019-03-23T00:09:18.420Z,0
2019-03-23T00:10:20.155Z,0
2019-03-23T00:11:22.105Z,0
2019-03-23T00:12:25.548Z,0
2019-03-23T00:13:27.254Z,0
2019-03-23T00:14:29.212Z,0
2019-03-23T00:15:31.095Z,0
2019-03-23T00:16:32.732Z,0
2019-03-23T00:17:34.637Z,0
2019-03-23T00:18:36.708Z,0
2019-03-23T00:19:38.483Z,0
2019-03-23T00:20:40.415Z,0
2019-03-23T00:21:42.605Z,0
2019-03-23T00:22:44.430Z,0
2019-03-23T00:23:46.201Z,0
2019-03-23T00:24:48.381Z,0
2019-03-23T00:25:50.251Z,0
2019-03-23T00:26:52.154Z,0
2019-03-23T00:27:53.895Z,0
2019-03-23T00:28:55.640Z,0
2019-03-23T00:29:57.513Z,0
2019-03-23T00:30:59.303Z,0
2019-03-23T00:32:01.161Z,0
2019-03-23T00:33:03.097Z,0
2019-03-23T00:34:05.384Z,0
2019-03-23T00:35:07.120Z,0
2019-03-23T00:36:09.025Z,0
2019-03-23T00:37:10.928Z,0
2019-03-23T00:38:12.726Z,0
2019-03-23T00:39:14.516Z,0
2019-03-23T00:40:16.645Z,0
2019-03-23T00:41:18.423Z,0
2019-03-23T00:42:20.275Z,0
2019-03-23T00:43:22.167Z,0
2019-03-23T00:44:23.984Z,0
2019-03-23T00:45:25.755Z,0
2019-03-23T00:46:27.656Z,0
2019-03-23T00:47:29.531Z,0
2019-03-23T00:48:31.377Z,0
2019-03-23T00:49:33.142Z,0
2019-03-23T00:50:34.954Z,0
2019-03-23T00:51:36.716Z,0
2019-03-23T00:52:38.554Z,0
2019-03-23T00:53:40.638Z,0
2019-03-23T00:54:42.366Z,0
2019-03-23T00:55:44.151Z,0
2019-03-23T00:56:46.098Z,0
2019-03-23T00:57:47.910Z,0
2019-03-23T00:58:49.764Z,0
2019-03-23T00:59:51.708Z,0
2019-03-23T01:00:53.480Z,0
2019-03-23T01:01:55.247Z,0
2019-03-23T01:02:57.293Z,0
2019-03-23T01:03:58.992Z,0
2019-03-23T01:05:00.726Z,0
2019-03-23T01:06:02.679Z,0
2019-03-23T01:07:04.374Z,0
2019-03-23T01:08:05.917Z,0
2019-03-23T01:09:07.581Z,0
2019-03-23T01:10:09.251Z,0
2019-03-23T01:11:11.093Z,0
2019-03-23T01:12:12.720Z,0
2019-03-23T01:13:14.266Z,0
2019-03-23T01:14:16.110Z,0
2019-03-23T01:15:17.724Z,0
2019-03-23T01:16:19.322Z,0
2019-03-23T01:17:21.197Z,0
2019-03-23T01:18:22.823Z,0
2019-03-23T01:19:24.444Z,0
2019-03-23T01:20:26.284Z,0
2019-03-23T01:21:27.828Z,0
2019-03-23T01:22:29.409Z,0
2019-03-23T01:23:31.279Z,0
2019-03-23T01:24:32.952Z,0
2019-03-23T01:25:34.550Z,0
2019-03-23T01:26:36.361Z,0
2019-03-23T01:27:37.980Z,0
2019-03-23T01:28:39.671Z,0
2019-03-23T01:29:41.553Z,0
2019-03-23T01:30:43.127Z,0
2019-03-23T01:31:44.707Z,0
2019-03-23T01:32:46.471Z,0
2019-03-23T01:33:48.048Z,0
2019-03-23T01:34:49.659Z,0
2019-03-23T01:35:51.329Z,0
2019-03-23T01:37:02.292Z,0
2019-03-23T01:37:54.404Z,0
2019-03-23T01:38:56.056Z,0
2019-03-23T01:39:57.693Z,0
2019-03-23T01:40:59.526Z,0
2019-03-23T01:42:01.029Z,0
2019-03-23T01:43:02.465Z,0
2019-03-23T01:44:04.110Z,0
2019-03-23T01:45:05.688Z,0
2019-03-23T01:46:07.090Z,0
2019-03-23T01:47:08.701Z,0
2019-03-23T01:48:10.500Z,0
2019-03-23T01:49:12.215Z,0
2019-03-23T01:50:14.298Z,0
2019-03-23T01:51:16.064Z,0
2019-03-23T01:52:17.779Z,0
2019-03-23T01:53:19.571Z,0
2019-03-23T01:54:21.418Z,0
2019-03-23T01:55:23.231Z,0
2019-03-23T01:56:24.964Z,0
2019-03-23T01:57:26.775Z,0
2019-03-23T01:58:28.608Z,0
2019-03-23T01:59:30.242Z,0
2019-03-23T02:00:31.957Z,0
2019-03-23T02:01:33.702Z,0
2019-03-23T02:02:36.167Z,0
2019-03-23T02:03:38.278Z,0
2019-03-23T02:04:39.891Z,0
2019-03-23T02:05:41.562Z,0
2019-03-23T02:06:52.103Z,0
2019-03-23T02:07:53.521Z,0
2019-03-23T02:08:54.894Z,0
2019-03-23T02:09:56.480Z,0
2019-03-23T02:10:57.949Z,0
2019-03-23T02:11:59.619Z,0
2019-03-23T02:13:01.099Z,0
2019-03-23T02:14:02.830Z,0
2019-03-23T02:15:04.429Z,0
2019-03-23T02:16:06.367Z,0
2019-03-23T02:17:07.913Z,0
2019-03-23T02:18:09.787Z,0
2019-03-23T02:19:11.347Z,0
2019-03-23T02:20:12.754Z,0
2019-03-23T02:21:14.518Z,0
2019-03-23T02:22:16.400Z,0
2019-03-23T02:23:17.991Z,0
2019-03-23T02:24:19.858Z,0
2019-03-23T02:25:21.783Z,0
2019-03-23T02:26:23.425Z,0
2019-03-23T02:27:25.067Z,0
2019-03-23T02:28:26.821Z,0
2019-03-23T02:29:28.446Z,0
2019-03-23T02:30:30.132Z,0
2019-03-23T02:31:32.050Z,0
2019-03-23T02:32:33.752Z,0
2019-03-23T02:33:35.514Z,0
2019-03-23T02:34:37.241Z,0
2019-03-23T02:35:38.889Z,0
2019-03-23T02:36:40.517Z,0
2019-03-23T02:37:42.316Z,0
2019-03-23T02:38:44.023Z,0
2019-03-23T02:39:45.756Z,0
2019-03-23T02:40:47.626Z,0
2019-03-23T02:41:49.196Z,0
2019-03-23T02:42:51.322Z,0
2019-03-23T02:43:55.285Z,0
2019-03-23T02:45:05.050Z,0
2019-03-23T02:46:08.206Z,0
2019-03-23T02:47:10.063Z,0
2019-03-23T02:48:11.705Z,0
2019-03-23T02:49:13.292Z,0
2019-03-23T02:50:15.133Z,0
2019-03-23T02:51:16.760Z,0
2019-03-23T02:52:23.406Z,0
2019-03-23T02:53:25.094Z,0
2019-03-23T02:54:26.848Z,0
2019-03-23T02:55:28.807Z,0
2019-03-23T02:56:30.480Z,0
2019-03-23T02:57:32.082Z,0
2019-03-23T02:58:33.944Z,0
2019-03-23T02:59:35.617Z,0
2019-03-23T03:00:37.223Z,0
2019-03-23T03:01:39.135Z,0
2019-03-23T03:02:40.663Z,0
2019-03-23T03:03:42.340Z,0
2019-03-23T03:04:44.040Z,0
2019-03-23T03:05:45.593Z,0
2019-03-23T03:06:47.350Z,0
2019-03-23T03:07:48.925Z,0
2019-03-23T03:08:50.939Z,0
2019-03-23T03:09:52.566Z,0
2019-03-23T03:10:54.296Z,0
2019-03-23T03:11:55.931Z,0
2019-03-23T03:12:57.878Z,0
2019-03-23T03:13:59.496Z,0
2019-03-23T03:15:01.155Z,0
2019-03-23T03:16:03.072Z,0
2019-03-23T03:17:04.772Z,0
2019-03-23T03:18:06.492Z,0
2019-03-23T03:19:08.563Z,0
2019-03-23T03:20:10.370Z,0
2019-03-23T03:21:12.792Z,0
2019-03-23T03:22:14.850Z,0
2019-03-23T03:23:16.723Z,0
2019-03-23T03:24:18.501Z,0
2019-03-23T03:25:20.184Z,0
2019-03-23T03:26:21.824Z,0
2019-03-23T03:27:26.054Z,0
2019-03-23T03:28:27.751Z,0
2019-03-23T03:29:29.453Z,0
2019-03-23T03:30:31.113Z,0
2019-03-23T03:31:33.445Z,0
2019-03-23T03:32:35.052Z,0
2019-03-23T03:33:36.830Z,0
2019-03-23T03:34:46.949Z,0
2019-03-23T03:35:48.690Z,0
2019-03-23T03:36:50.431Z,0
2019-03-23T03:37:57.037Z,0
2019-03-23T03:38:53.758Z,0
2019-03-23T03:39:55.491Z,0
2019-03-23T03:40:56.915Z,0
2019-03-23T03:41:58.593Z,0
2019-03-23T03:43:00.052Z,0
2019-03-23T03:44:01.886Z,0
2019-03-23T03:45:03.330Z,0
2019-03-23T03:46:05.162Z,0
2019-03-23T03:47:06.732Z,0
2019-03-23T03:48:08.417Z,0
2019-03-23T03:49:12.553Z,0
2019-03-23T03:50:11.533Z,0
2019-03-23T03:51:13.187Z,0
2019-03-23T03:52:14.800Z,0
2019-03-23T03:53:16.499Z,0
2019-03-23T03:54:18.063Z,0
2019-03-23T03:55:19.608Z,0
2019-03-23T03:56:21.274Z,0
2019-03-23T03:57:23.125Z,0
2019-03-23T03:58:24.668Z,0
2019-03-23T03:59:26.287Z,0
2019-03-23T04:00:28.115Z,0
2019-03-23T04:01:29.742Z,0
2019-03-23T04:02:31.531Z,0
2019-03-23T04:03:33.085Z,0
2019-03-23T04:04:34.889Z,0
2019-03-23T04:05:36.558Z,0
2019-03-23T04:06:38.171Z,0
2019-03-23T04:07:39.941Z,0
2019-03-23T04:08:41.543Z,0
2019-03-23T04:09:43.188Z,0
2019-03-23T04:10:44.853Z,0
2019-03-23T04:11:46.578Z,0
2019-03-23T04:12:48.333Z,0
2019-03-23T04:13:49.910Z,0
2019-03-23T04:14:51.575Z,0
2019-03-23T04:15:53.262Z,0
2019-03-23T04:16:54.750Z,0
2019-03-23T04:17:56.348Z,0
2019-03-23T04:18:57.958Z,0
2019-03-23T04:19:59.593Z,0
2019-03-23T04:21:01.124Z,0
2019-03-23T04:22:02.884Z,0
2019-03-23T04:23:04.430Z,0
2019-03-23T04:24:06.010Z,0
2019-03-23T04:25:07.643Z,0
2019-03-23T04:26:09.262Z,0
2019-03-23T04:27:10.802Z,0
2019-03-23T04:28:12.506Z,0
2019-03-23T04:29:14.047Z,0
2019-03-23T04:30:15.587Z,0
2019-03-23T04:31:17.357Z,0
2019-03-23T04:32:18.957Z,0
2019-03-23T04:33:20.539Z,0
2019-03-23T04:34:22.227Z,0
2019-03-23T04:35:23.816Z,0
2019-03-23T04:36:25.446Z,0
2019-03-23T04:37:26.986Z,0
2019-03-23T04:38:28.573Z,0
2019-03-23T04:39:30.222Z,0
2019-03-23T04:40:31.748Z,0
2019-03-23T04:41:33.500Z,0
2019-03-23T04:42:35.016Z,0
2019-03-23T04:43:36.592Z,0
2019-03-23T04:44:38.410Z,0
2019-03-23T04:45:39.840Z,0
2019-03-23T04:46:43.883Z,0
2019-03-23T04:47:43.142Z,0
2019-03-23T04:48:44.869Z,0
2019-03-23T04:49:46.423Z,0
2019-03-23T04:50:47.958Z,0
2019-03-23T04:51:49.690Z,0
2019-03-23T04:52:51.301Z,0
2019-03-23T04:53:52.902Z,0
2019-03-23T04:54:54.597Z,0
2019-03-23T04:55:56.111Z,0
2019-03-23T04:56:57.912Z,0
2019-03-23T04:57:59.544Z,0
2019-03-23T04:59:01.353Z,0
2019-03-23T05:00:02.908Z,0
2019-03-23T05:01:04.638Z,0
2019-03-23T05:02:06.238Z,0
2019-03-23T05:03:07.915Z,0
2019-03-23T05:04:09.445Z,0
2019-03-23T05:05:11.162Z,0
2019-03-23T05:06:12.781Z,0
2019-03-23T05:07:14.463Z,0
2019-03-23T05:08:16.034Z,0
2019-03-23T05:09:18.473Z,0
2019-03-23T05:10:21.933Z,0
2019-03-23T05:11:23.495Z,0
2019-03-23T05:12:24.968Z,0
2019-03-23T05:13:26.479Z,0
2019-03-23T05:14:27.916Z,0
2019-03-23T05:15:29.757Z,0
2019-03-23T05:16:31.296Z,0
2019-03-23T05:17:33.035Z,0
2019-03-23T05:18:34.553Z,0
2019-03-23T05:19:36.215Z,0
2019-03-23T05:20:37.860Z,0
2019-03-23T05:21:39.441Z,0
2019-03-23T05:22:41.187Z,0
2019-03-23T05:23:42.723Z,0
2019-03-23T05:24:44.334Z,0
2019-03-23T05:25:46.017Z,0
2019-03-23T05:26:47.566Z,0
2019-03-23T05:27:49.041Z,0
2019-03-23T05:28:50.647Z,0
2019-03-23T05:29:52.321Z,0
2019-03-23T05:30:54.020Z,0
2019-03-23T05:31:55.811Z,0
2019-03-23T05:32:57.338Z,0
2019-03-23T05:33:59.121Z,0
2019-03-23T05:35:00.630Z,0
2019-03-23T05:36:02.412Z,0
2019-03-23T05:37:04.157Z,0
2019-03-23T05:38:05.935Z,0
2019-03-23T05:39:07.434Z,0
2019-03-23T05:40:09.084Z,0
2019-03-23T05:41:10.763Z,0
2019-03-23T05:42:12.309Z,0
2019-03-23T05:43:13.940Z,0
2019-03-23T05:44:15.485Z,0
2019-03-23T05:45:17.098Z,0
2019-03-23T05:46:18.889Z,0
2019-03-23T05:47:20.481Z,0
2019-03-23T05:48:22.142Z,0
2019-03-23T05:49:23.658Z,0
2019-03-23T05:50:25.429Z,0
2019-03-23T05:51:26.969Z,5
2019-03-23T05:52:28.588Z,5
2019-03-23T05:53:30.421Z,5
2019-03-23T05:54:31.993Z,5
2019-03-23T05:55:33.409Z,5
2019-03-23T05:56:35.039Z,5
2019-03-23T05:57:36.574Z,5
2019-03-23T05:58:38.208Z,5
2019-03-23T05:59:39.727Z,5
2019-03-23T06:00:41.587Z,5
2019-03-23T06:01:43.139Z,5
2019-03-23T06:02:44.683Z,5
2019-03-23T06:03:46.427Z,5
2019-03-23T06:04:48.124Z,5
2019-03-23T06:05:50.013Z,5
2019-03-23T06:06:51.898Z,5
2019-03-23T06:07:53.419Z,5
2019-03-23T06:08:55.526Z,10
2019-03-23T06:09:56.764Z,10
2019-03-23T06:10:58.345Z,5
2019-03-23T06:11:59.967Z,5
2019-03-23T06:13:01.601Z,10
2019-03-23T06:14:03.172Z,10
2019-03-23T06:15:04.968Z,10
2019-03-23T06:16:06.546Z,10
2019-03-23T06:17:08.227Z,10
2019-03-23T06:18:09.816Z,10
2019-03-23T06:19:11.454Z,10
2019-03-23T06:20:13.027Z,10
2019-03-23T06:21:14.576Z,10
2019-03-23T06:22:16.288Z,15
2019-03-23T06:23:17.914Z,15
2019-03-23T06:24:19.495Z,15
2019-03-23T06:25:21.160Z,15
2019-03-23T06:26:22.745Z,15
2019-03-23T06:27:24.379Z,15
2019-03-23T06:28:26.106Z,15
2019-03-23T06:29:27.666Z,15
2019-03-23T06:30:29.257Z,15
2019-03-23T06:31:31.681Z,15
2019-03-23T06:32:33.363Z,15
2019-03-23T06:33:34.909Z,15
2019-03-23T06:34:36.575Z,15
2019-03-23T06:35:38.116Z,15
2019-03-23T06:36:39.712Z,15
2019-03-23T06:37:41.345Z,20
2019-03-23T06:38:42.914Z,20
2019-03-23T06:39:44.545Z,20
2019-03-23T06:40:46.063Z,20
2019-03-23T06:41:47.678Z,20
2019-03-23T06:42:59.092Z,20
2019-03-23T06:43:50.839Z,20
2019-03-23T06:44:52.404Z,20
2019-03-23T06:45:54.061Z,20
2019-03-23T06:46:55.616Z,20
2019-03-23T06:47:57.350Z,25
2019-03-23T06:48:58.955Z,25
2019-03-23T06:50:00.993Z,25
2019-03-23T06:51:03.292Z,30
2019-03-23T06:52:04.278Z,30
2019-03-23T06:53:05.893Z,25
2019-03-23T06:54:07.738Z,25
2019-03-23T06:55:09.301Z,25
2019-03-23T06:56:10.921Z,25
2019-03-23T06:57:12.524Z,25
2019-03-23T06:58:14.061Z,25
2019-03-23T06:59:15.679Z,25
2019-03-23T07:00:17.239Z,25
2019-03-23T07:01:18.858Z,25
2019-03-23T07:02:20.690Z,30
2019-03-23T07:03:22.301Z,30
2019-03-23T07:04:23.992Z,25
2019-03-23T07:05:25.710Z,25
2019-03-23T07:06:27.264Z,25
2019-03-23T07:07:28.952Z,30
2019-03-23T07:08:32.206Z,30
2019-03-23T07:09:32.114Z,30
2019-03-23T07:10:33.880Z,30
2019-03-23T07:11:35.391Z,25
2019-03-23T07:12:37.119Z,25
2019-03-23T07:13:38.690Z,25
2019-03-23T07:14:40.402Z,20
2019-03-23T07:15:41.939Z,25
2019-03-23T07:16:43.719Z,25
2019-03-23T07:17:45.320Z,25
2019-03-23T07:18:46.976Z,25
2019-03-23T07:19:48.521Z,25
2019-03-23T07:20:50.155Z,30
2019-03-23T07:21:51.711Z,30
2019-03-23T07:22:54.852Z,30
2019-03-23T07:23:54.864Z,30
2019-03-23T07:24:57.446Z,30
2019-03-23T07:26:00.616Z,30
2019-03-23T07:27:02.082Z,30
2019-03-23T07:28:05.229Z,30
2019-03-23T07:29:06.844Z,35
2019-03-23T07:30:08.376Z,35
2019-03-23T07:31:10.539Z,35
2019-03-23T07:32:12.202Z,30
2019-03-23T07:33:13.894Z,35
2019-03-23T07:34:15.393Z,35
2019-03-23T07:35:17.153Z,35
2019-03-23T07:36:18.733Z,35
2019-03-23T07:37:20.477Z,35
2019-03-23T07:38:22.031Z,35
2019-03-23T07:39:28.201Z,40
2019-03-23T07:40:25.206Z,40
2019-03-23T07:41:26.792Z,45
2019-03-23T07:42:28.351Z,40
2019-03-23T07:43:30.030Z,40
2019-03-23T07:44:31.620Z,40
2019-03-23T07:45:33.324Z,40
2019-03-23T07:46:35.066Z,35
2019-03-23T07:47:36.545Z,40
2019-03-23T07:48:38.151Z,40
2019-03-23T07:49:39.741Z,40
2019-03-23T07:50:41.304Z,45
2019-03-23T07:51:42.916Z,45
2019-03-23T07:52:44.484Z,55
2019-03-23T07:53:46.066Z,55
2019-03-23T07:54:47.840Z,50
2019-03-23T07:55:49.330Z,55
2019-03-23T07:56:50.910Z,60
2019-03-23T07:57:52.476Z,60
2019-03-23T07:58:54.080Z,65
2019-03-23T07:59:55.661Z,65
2019-03-23T08:00:57.249Z,70
2019-03-23T08:01:58.675Z,70
2019-03-23T08:03:00.367Z,65
2019-03-23T08:04:01.897Z,70
2019-03-23T08:05:03.563Z,70
2019-03-23T08:06:05.137Z,75
2019-03-23T08:07:06.726Z,75
2019-03-23T08:08:08.348Z,70
2019-03-23T08:09:19.813Z,65
2019-03-23T08:10:11.421Z,65
2019-03-23T08:11:13.043Z,65
2019-03-23T08:12:14.644Z,75
2019-03-23T08:13:16.153Z,70
2019-03-23T08:14:17.847Z,65
2019-03-23T08:15:19.333Z,65
2019-03-23T08:16:21.174Z,65
2019-03-23T08:17:22.823Z,80
2019-03-23T08:18:24.540Z,75
2019-03-23T08:19:26.189Z,70
2019-03-23T08:20:27.840Z,75
2019-03-23T08:21:29.371Z,80
2019-03-23T08:22:31.108Z,75
2019-03-23T08:23:32.727Z,70
2019-03-23T08:24:34.304Z,70
2019-03-23T08:25:35.826Z,70
2019-03-23T08:26:37.350Z,70
2019-03-23T08:27:38.962Z,70
2019-03-23T08:28:40.500Z,70
2019-03-23T08:29:42.413Z,70
2019-03-23T08:30:43.910Z,70
2019-03-23T08:31:45.556Z,70
2019-03-23T08:32:47.198Z,80
2019-03-23T08:33:48.838Z,80
2019-03-23T08:34:50.369Z,80
2019-03-23T08:35:51.946Z,85
2019-03-23T08:36:53.474Z,80
2019-03-23T08:37:55.173Z,80
2019-03-23T08:38:56.672Z,85
2019-03-23T08:39:58.116Z,90
2019-03-23T08:40:59.606Z,85
2019-03-23T08:42:01.016Z,80
2019-03-23T08:43:02.532Z,80
2019-03-23T08:44:04.260Z,80
2019-03-23T08:45:05.809Z,75
2019-03-23T08:46:07.565Z,80
2019-03-23T08:47:09.100Z,80
2019-03-23T08:48:10.648Z,75
2019-03-23T08:49:12.312Z,80
2019-03-23T08:50:13.783Z,80
2019-03-23T08:51:15.368Z,75
2019-03-23T08:52:17.037Z,70
2019-03-23T08:53:18.645Z,70
2019-03-23T08:54:20.158Z,70
2019-03-23T08:55:22.022Z,75
2019-03-23T08:56:23.377Z,75
2019-03-23T08:57:25.095Z,75
2019-03-23T08:58:26.724Z,75
2019-03-23T08:59:28.430Z,70
2019-03-23T09:00:30.113Z,75
